Time;durP1;ratioP1;P1;durP2;ratioP2;P2;SDS_P1;SDS_P2;PMS_P1;PMS_P2;Temp;Humidity;BMP_temperature;BMP_pressure;BME280_temperature;BME280_humidity;BME280_pressure;Samples;Min_cycle;Max_cycle;Signal;HPM_P1;HPM_P2
2021/05/31 00:00:25;;;;;;;16.70;7.85;;;;;;;8.57;53.30;102654.59;4982097;28;20030;-66
2021/05/31 00:02:51;;;;;;;14.23;7.20;;;;;;;8.61;53.23;102658.06;5005253;28;20068;-69
2021/05/31 00:05:22;;;;;;;11.52;5.63;;;;;;;8.63;53.24;102656.34;5008297;28;20065;-70
2021/05/31 00:07:47;;;;;;;13.75;6.80;;;;;;;8.47;53.42;102658.13;5005088;28;20053;-69
2021/05/31 00:10:13;;;;;;;13.23;7.88;;;;;;;8.38;53.28;102649.44;5006441;28;20217;-70
2021/05/31 00:12:38;;;;;;;11.48;7.05;;;;;;;8.39;53.44;102654.66;5007233;28;20427;-70
2021/05/31 00:15:07;;;;;;;20.38;8.20;;;;;;;8.47;53.74;102650.31;5009564;28;20052;-69
2021/05/31 00:17:32;;;;;;;16.77;7.90;;;;;;;8.51;53.07;102644.19;5006719;28;20045;-69
2021/05/31 00:19:58;;;;;;;13.88;6.75;;;;;;;8.63;52.67;102639.81;5008180;28;20033;-70
2021/05/31 00:22:24;;;;;;;10.25;6.53;;;;;;;8.61;52.38;102637.22;5004515;28;20041;-67
2021/05/31 00:24:51;;;;;;;13.52;6.40;;;;;;;8.51;52.54;102636.38;5006078;28;20039;-66
2021/05/31 00:27:17;;;;;;;14.35;6.57;;;;;;;8.42;52.68;102635.53;5006273;28;20113;-65
2021/05/31 00:29:44;;;;;;;14.48;7.45;;;;;;;8.44;52.75;102633.81;5005983;28;20037;-66
2021/05/31 00:32:10;;;;;;;17.17;7.13;;;;;;;8.35;53.18;102629.47;5006454;28;20033;-66
2021/05/31 00:34:36;;;;;;;21.75;7.90;;;;;;;8.29;53.41;102627.78;5005392;28;20026;-66
2021/05/31 00:37:02;;;;;;;11.60;6.60;;;;;;;8.39;53.33;102626.00;5009861;28;20505;-67
2021/05/31 00:39:27;;;;;;;12.82;7.30;;;;;;;8.48;52.87;102619.91;5005217;28;20049;-66
2021/05/31 00:41:54;;;;;;;20.63;8.05;;;;;;;8.45;53.18;102625.09;5006255;28;20037;-67
2021/05/31 00:44:21;;;;;;;15.27;7.78;;;;;;;8.49;53.13;102627.69;5020952;28;20069;-66
2021/05/31 00:46:48;;;;;;;11.35;7.15;;;;;;;8.62;52.89;102631.13;5005386;28;20080;-66
2021/05/31 00:49:20;;;;;;;15.45;7.70;;;;;;;8.63;52.55;102637.19;5006575;28;20259;-66
2021/05/31 00:51:46;;;;;;;11.82;8.23;;;;;;;8.61;52.82;102633.75;5005558;28;20052;-66
2021/05/31 00:54:12;;;;;;;14.63;7.72;;;;;;;8.48;53.87;102630.31;5006643;28;20038;-67
2021/05/31 00:56:40;;;;;;;17.90;9.15;;;;;;;8.40;53.95;102637.28;4996564;28;20039;-66
2021/05/31 00:59:06;;;;;;;12.55;7.32;;;;;;;8.53;53.40;102619.00;5006350;28;20387;-66
2021/05/31 01:01:31;;;;;;;18.52;9.13;;;;;;;8.52;53.31;102619.88;5005099;28;20107;-66
2021/05/31 01:03:57;;;;;;;17.80;7.85;;;;;;;8.53;53.25;102623.34;5006661;28;20039;-66
2021/05/31 01:06:29;;;;;;;11.63;7.88;;;;;;;8.40;53.34;102617.31;5004328;28;20088;-66
2021/05/31 01:09:01;;;;;;;14.38;8.02;;;;;;;8.25;54.57;102618.22;5006127;28;20060;-68
2021/05/31 01:11:43;;;;;;;;;;;;;;;8.41;54.34;102624.25;5004946;28;20087;-66
2021/05/31 01:14:16;;;;;;;13.18;7.55;;;;;;;8.47;53.78;102623.34;5003668;28;19957;-68
2021/05/31 01:16:53;;;;;;;14.02;8.52;;;;;;;8.47;53.87;102615.53;5004342;28;20038;-67
2021/05/31 01:19:37;;;;;;;16.67;8.88;;;;;;;8.32;54.34;102617.34;5005111;28;20107;-65
2021/05/31 01:22:10;;;;;;;12.23;8.00;;;;;;;8.46;54.24;102616.44;4993406;28;20079;-67
2021/05/31 01:25:04;;;;;;;14.82;8.77;;;;;;;8.43;54.31;102617.31;5020786;28;20083;-67
2021/05/31 01:28:14;;;;;;;20.30;8.95;;;;;;;8.50;54.55;102619.03;5003745;28;20049;-68
2021/05/31 01:30:44;;;;;;;15.25;8.85;;;;;;;8.59;54.48;102617.25;5020040;28;20471;-70
2021/05/31 01:33:16;;;;;;;20.13;9.02;;;;;;;8.57;54.80;102615.50;5006192;28;20034;-70
2021/05/31 01:35:43;;;;;;;15.43;9.30;;;;;;;8.54;54.33;102609.47;5004909;28;20498;-70
2021/05/31 01:38:09;;;;;;;16.52;8.30;;;;;;;8.57;54.80;102615.50;5005992;28;20087;-70
2021/05/31 01:40:36;;;;;;;23.08;9.40;;;;;;;8.70;54.43;102616.34;5009279;28;20048;-69
2021/05/31 01:43:04;;;;;;;16.05;9.45;;;;;;;8.69;54.85;102611.13;5002987;28;20064;-70
2021/05/31 01:45:30;;;;;;;24.25;10.10;;;;;;;8.74;54.61;102602.44;5019694;28;20483;-71
2021/05/31 01:47:57;;;;;;;19.13;8.82;;;;;;;8.80;54.33;102604.16;5005430;28;20060;-72
2021/05/31 01:50:23;;;;;;;21.63;9.30;;;;;;;8.75;54.17;102604.16;5005288;28;20032;-72
2021/05/31 01:52:49;;;;;;;25.80;8.68;;;;;;;8.76;54.04;102605.91;5005636;28;20030;-72
2021/05/31 01:55:15;;;;;;;24.02;9.52;;;;;;;8.65;54.36;102601.56;5004175;28;20615;-72
2021/05/31 01:57:45;;;;;;;19.30;8.48;;;;;;;8.59;54.28;102599.00;5004548;28;20033;-71
2021/05/31 02:00:12;;;;;;;17.17;8.52;;;;;;;8.56;54.11;102608.56;5005475;28;20025;-71
2021/05/31 02:02:38;;;;;;;16.13;8.30;;;;;;;8.55;54.09;102606.81;5003789;28;20121;-71
2021/05/31 02:05:07;;;;;;;16.90;8.25;;;;;;;8.56;54.53;102592.03;5019578;28;20297;-71
2021/05/31 02:07:34;;;;;;;15.32;8.15;;;;;;;8.57;54.32;102589.44;5004739;28;20030;-72
2021/05/31 02:10:00;;;;;;;11.77;7.45;;;;;;;8.59;54.16;102584.22;5000194;28;20598;-71
2021/05/31 02:12:32;;;;;;;15.70;7.47;;;;;;;8.62;54.28;102585.97;5004980;28;20089;-71
2021/05/31 02:15:04;;;;;;;13.68;8.20;;;;;;;8.54;54.37;102583.41;5005491;28;20040;-70
2021/05/31 02:17:30;;;;;;;;;;;;;;;8.62;53.84;102584.22;5006162;28;20029;-70
2021/05/31 02:19:59;;;;;;;17.27;7.10;;;;;;;8.51;53.84;102589.47;5002045;28;20401;-67
2021/05/31 02:22:25;;;;;;;17.85;8.13;;;;;;;8.28;54.81;102588.69;5005212;28;20036;-67
2021/05/31 02:24:54;;;;;;;15.05;8.35;;;;;;;8.33;54.34;102587.78;4995119;28;20048;-66
2021/05/31 02:27:21;;;;;;;16.52;8.20;;;;;;;8.46;54.53;102591.22;5003671;28;20187;-66
2021/05/31 02:29:47;;;;;;;13.18;8.10;;;;;;;8.28;55.01;102589.56;5004258;28;20038;-66
2021/05/31 02:32:12;;;;;;;19.17;8.38;;;;;;;8.33;55.15;102585.19;5003856;28;20038;-67
2021/05/31 02:34:38;;;;;;;14.73;7.75;;;;;;;8.37;54.69;102580.84;5002420;28;20237;-67
2021/05/31 02:37:04;;;;;;;16.95;7.50;;;;;;;8.36;54.63;102579.13;5003572;28;20036;-67
2021/05/31 02:39:29;;;;;;;11.63;7.68;;;;;;;8.38;54.58;102585.16;5003625;28;20112;-67
2021/05/31 02:41:55;;;;;;;16.48;9.05;;;;;;;8.37;54.92;102583.44;5003160;28;20036;-66
2021/05/31 02:44:20;;;;;;;17.38;8.10;;;;;;;8.51;54.26;102589.47;5004954;28;20500;-67
2021/05/31 02:46:46;;;;;;;19.52;8.05;;;;;;;8.42;54.43;102586.91;5018462;28;20149;-67
2021/05/31 02:49:11;;;;;;;19.17;8.90;;;;;;;8.39;54.71;102591.28;5005483;28;20072;-67
2021/05/31 02:51:38;;;;;;;15.25;9.40;;;;;;;8.39;54.50;102584.31;5004779;28;20526;-67
2021/05/31 02:54:04;;;;;;;19.25;9.23;;;;;;;8.38;55.04;102585.16;5004409;28;20026;-68
2021/05/31 02:56:30;;;;;;;16.35;8.10;;;;;;;8.41;54.90;102585.19;5003386;28;20026;-70
2021/05/31 02:58:55;;;;;;;14.80;7.88;;;;;;;8.50;55.17;102585.13;5004615;28;20632;-71
2021/05/31 03:01:21;;;;;;;20.67;8.50;;;;;;;8.47;55.33;102590.38;4999918;28;20065;-70
2021/05/31 03:03:46;;;;;;;26.50;11.13;;;;;;;8.69;54.90;102585.91;5002413;28;20500;-70
2021/05/31 03:06:12;;;;;;;43.20;10.60;;;;;;;8.68;54.94;102584.19;5005675;28;20029;-70
2021/05/31 03:08:37;;;;;;;30.95;10.07;;;;;;;8.67;55.31;102578.97;5004094;28;20041;-70
2021/05/31 03:11:03;;;;;;;20.65;8.70;;;;;;;8.70;54.85;102578.97;5007891;28;20306;-71
2021/05/31 03:13:29;;;;;;;16.30;8.30;;;;;;;8.73;54.96;102576.38;5006920;28;20061;-71
2021/05/31 03:15:54;;;;;;;19.95;9.65;;;;;;;8.80;55.32;102574.59;5009266;28;20033;-70
2021/05/31 03:18:20;;;;;;;19.52;9.30;;;;;;;8.85;55.26;102570.22;5007417;28;20402;-71
2021/05/31 03:20:46;;;;;;;24.90;9.52;;;;;;;8.97;55.23;102564.94;5007995;28;20593;-71
2021/05/31 03:23:12;;;;;;;21.63;9.43;;;;;;;9.02;55.22;102575.34;5001174;28;20121;-71
2021/05/31 03:25:38;;;;;;;21.63;8.95;;;;;;;9.12;54.96;102567.47;5009553;28;20402;-71
2021/05/31 03:28:05;;;;;;;16.58;8.45;;;;;;;9.06;54.91;102569.25;4998773;28;20120;-70
2021/05/31 03:30:31;;;;;;;49.45;10.48;;;;;;;8.80;55.87;102567.63;5006949;28;20049;-69
2021/05/31 03:32:56;;;;;;;39.30;9.07;;;;;;;8.93;55.60;102571.06;5009511;28;20037;-70
2021/05/31 03:35:22;;;;;;;41.05;8.95;;;;;;;8.96;55.44;102574.53;5007713;28;20026;-71
2021/05/31 03:37:48;;;;;;;11.90;7.63;;;;;;;9.13;55.33;102573.53;5008191;28;20624;-71
2021/05/31 03:40:17;;;;;;;89.85;9.57;;;;;;;9.00;55.27;102571.88;5011487;28;20414;-70
2021/05/31 03:42:42;;;;;;;47.97;7.57;;;;;;;8.95;54.86;102575.38;5007349;28;20041;-69
2021/05/31 03:45:10;;;;;;;73.30;8.80;;;;;;;8.89;54.68;102570.19;5007832;28;20041;-67
2021/05/31 03:47:35;;;;;;;11.45;6.82;;;;;;;8.90;55.04;102577.16;4999913;28;20168;-66
2021/05/31 03:50:01;;;;;;;22.13;6.80;;;;;;;8.94;55.04;102573.66;5006939;28;20136;-67
2021/05/31 03:52:27;;;;;;;10.75;6.95;;;;;;;8.97;55.09;102584.06;5007154;28;20074;-66
2021/05/31 03:54:52;;;;;;;11.77;6.47;;;;;;;9.01;55.00;102578.81;5007948;28;20033;-66
2021/05/31 03:57:18;;;;;;;19.35;7.75;;;;;;;8.94;55.07;102576.28;5006879;28;20033;-66
2021/05/31 03:59:46;;;;;;;14.55;6.88;;;;;;;8.95;54.49;102575.38;5021919;28;20038;-65
2021/05/31 04:02:12;;;;;;;21.77;6.32;;;;;;;9.00;54.88;102582.31;4996954;28;20040;-66
2021/05/31 04:04:42;;;;;;;14.85;6.68;;;;;;;9.11;54.53;102581.38;5006143;28;20054;-66
2021/05/31 04:12:40;;;;;;;10.30;6.05;;;;;;;9.19;54.67;102589.16;5006406;28;20036;-65
2021/05/31 04:15:06;;;;;;;9.77;7.10;;;;;;;9.31;53.83;102581.22;5007674;28;20034;-65
2021/05/31 04:17:32;;;;;;;14.57;6.88;;;;;;;9.24;53.73;102579.53;5006326;28;20061;-65
2021/05/31 04:19:57;;;;;;;13.05;6.20;;;;;;;9.54;53.49;102583.69;5007975;28;20409;-66
2021/05/31 04:22:23;;;;;;;7.65;5.03;;;;;;;9.46;52.75;102584.63;5006950;28;20042;-65
2021/05/31 04:24:48;;;;;;;10.65;5.90;;;;;;;9.53;53.28;102583.69;5006887;28;20133;-66
2021/05/31 04:27:14;;;;;;;9.73;5.65;;;;;;;9.56;52.90;102586.25;5007112;28;20064;-67
2021/05/31 04:29:39;;;;;;;8.38;5.88;;;;;;;9.65;53.44;102580.94;5006463;28;20106;-66
2021/05/31 04:32:05;;;;;;;23.55;6.40;;;;;;;9.66;52.53;102585.31;4991156;28;20494;-66
2021/05/31 04:34:30;;;;;;;17.35;5.75;;;;;;;9.60;52.32;102585.34;5005909;28;20328;-65
2021/05/31 04:36:56;;;;;;;8.38;6.00;;;;;;;9.78;53.05;102579.94;5008223;28;20034;-66
2021/05/31 04:39:21;;;;;;;7.90;5.10;;;;;;;10.10;52.87;102578.81;4987653;28;20021;-65
2021/05/31 04:41:47;;;;;;;6.22;4.97;;;;;;;10.16;52.35;102578.72;5003052;28;20036;-66
2021/05/31 04:44:12;;;;;;;7.97;5.68;;;;;;;10.26;51.97;102581.22;5004998;28;20502;-65
2021/05/31 04:46:38;;;;;;;6.05;5.00;;;;;;;10.46;51.17;102574.03;5005429;28;20040;-66
2021/05/31 04:49:04;;;;;;;10.38;6.07;;;;;;;10.64;50.38;102581.66;5007981;28;20068;-66
2021/05/31 04:51:30;;;;;;;8.45;5.50;;;;;;;10.75;51.15;102583.22;5004904;28;20029;-66
2021/05/31 04:53:57;;;;;;;16.10;5.80;;;;;;;10.94;50.14;102582.13;5004201;28;20038;-66
2021/05/31 04:56:24;;;;;;;9.10;5.07;;;;;;;11.01;50.02;102582.91;5006415;28;20143;-66
2021/05/31 04:58:49;;;;;;;6.70;4.97;;;;;;;11.03;50.04;102579.38;5005458;28;20090;-66
2021/05/31 05:01:15;;;;;;;8.05;5.35;;;;;;;11.39;49.67;102584.94;5006397;28;20042;-66
2021/05/31 05:03:40;;;;;;;9.25;5.82;;;;;;;11.55;49.16;102580.28;5019468;28;20026;-67
2021/05/31 05:06:06;;;;;;;11.57;5.60;;;;;;;11.40;49.42;102573.59;5005983;28;20025;-65
2021/05/31 05:08:31;;;;;;;7.85;5.47;;;;;;;12.00;48.95;102576.91;5004495;28;20116;-65
2021/05/31 05:10:57;;;;;;;11.73;5.65;;;;;;;12.41;46.91;102573.47;5009855;28;20076;-67
2021/05/31 05:13:22;;;;;;;7.78;5.32;;;;;;;12.92;46.60;102563.69;5005553;28;20088;-67
2021/05/31 05:15:49;;;;;;;6.78;4.82;;;;;;;13.39;45.84;102573.03;5020029;28;20069;-65
2021/05/31 05:18:14;;;;;;;12.38;5.88;;;;;;;13.57;43.68;102568.25;4996609;28;20041;-65
2021/05/31 05:20:40;;;;;;;8.43;5.40;;;;;;;13.74;44.11;102568.66;5005005;28;20045;-65
2021/05/31 05:23:05;;;;;;;7.00;5.18;;;;;;;13.74;44.16;102568.66;5005790;28;20034;-65
2021/05/31 05:25:31;;;;;;;8.25;4.95;;;;;;;14.04;44.47;102558.25;5005303;28;20044;-66
2021/05/31 05:27:57;;;;;;;5.95;5.18;;;;;;;13.83;43.03;102560.56;4997654;28;20034;-66
2021/05/31 05:30:25;;;;;;;12.25;6.47;;;;;;;13.76;42.74;102566.00;5005649;28;20495;-66
2021/05/31 05:32:52;;;;;;;11.70;6.45;;;;;;;13.68;44.84;102563.59;5004419;28;20030;-65
2021/05/31 05:35:26;;;;;;;10.30;6.50;;;;;;;14.35;44.50;102561.72;5005376;28;20395;-65
2021/05/31 05:48:18;;;;;;;10.48;6.90;;;;;;;22.51;27.29;102551.28;5003556;28;20080;-65
2021/05/31 05:50:43;;;;;;;8.00;6.95;;;;;;;22.11;28.10;102552.00;5003098;28;20045;-67
2021/05/31 05:53:09;;;;;;;10.10;6.55;;;;;;;22.32;28.50;102543.63;5003797;28;20056;-68
2021/05/31 05:55:34;;;;;;;8.30;6.18;;;;;;;22.77;27.15;102550.47;5004387;28;20030;-68
2021/05/31 05:58:00;;;;;;;11.63;6.13;;;;;;;23.06;26.73;102554.81;5003999;28;20370;-69
2021/05/31 06:00:28;;;;;;;11.82;6.65;;;;;;;23.43;26.09;102553.19;5000793;28;20120;-67
2021/05/31 06:02:54;;;;;;;12.88;8.52;;;;;;;23.07;25.63;102561.84;5002383;28;20097;-67
2021/05/31 06:05:21;;;;;;;19.27;9.02;;;;;;;22.21;27.38;102551.47;5003388;28;20041;-67
2021/05/31 06:07:46;;;;;;;13.23;7.63;;;;;;;22.45;28.08;102555.22;5003426;28;20033;-67
2021/05/31 06:10:13;;;;;;;15.70;7.53;;;;;;;22.83;27.55;102559.88;5005470;28;20064;-67
2021/05/31 06:12:39;;;;;;;8.00;6.68;;;;;;;22.89;26.30;102555.94;5004441;28;20285;-67
2021/05/31 06:15:06;;;;;;;8.40;6.55;;;;;;;23.83;24.58;102566.41;5006345;28;20066;-67
2021/05/31 06:17:31;;;;;;;10.15;6.60;;;;;;;23.84;25.70;102557.47;5004875;28;20064;-67
2021/05/31 06:20:00;;;;;;;6.40;5.72;;;;;;;23.89;25.11;102565.19;5004461;28;20064;-68
2021/05/31 06:22:32;;;;;;;12.07;6.68;;;;;;;23.93;25.71;102558.66;5005116;28;20037;-66
2021/05/31 06:24:57;;;;;;;7.68;6.85;;;;;;;23.94;25.62;102563.88;5004279;28;20036;-67
2021/05/31 06:27:23;;;;;;;9.82;5.85;;;;;;;23.98;25.32;102559.19;4996912;28;20033;-67
2021/05/31 06:29:48;;;;;;;8.80;5.82;;;;;;;24.30;26.08;102558.69;5002022;28;20030;-66
2021/05/31 06:32:14;;;;;;;7.28;5.47;;;;;;;24.96;23.96;102552.00;5004792;28;20030;-67
2021/05/31 06:34:40;;;;;;;7.55;6.30;;;;;;;25.22;24.22;102552.75;5005211;28;20060;-67
2021/05/31 06:37:05;;;;;;;9.88;5.82;;;;;;;25.33;23.73;102557.28;5004862;28;20041;-67
2021/05/31 06:39:31;;;;;;;10.02;7.22;;;;;;;25.38;24.13;102555.06;5003142;28;20030;-68
2021/05/31 06:41:56;;;;;;;6.15;4.45;;;;;;;26.53;23.25;102553.09;5004827;28;20032;-67
2021/05/31 06:44:22;;;;;;;6.75;5.93;;;;;;;26.86;23.06;102551.31;5003176;28;20092;-67
2021/05/31 06:46:47;;;;;;;8.32;4.97;;;;;;;26.94;22.25;102554.22;4987052;28;20044;-69
2021/05/31 06:49:13;;;;;;;7.20;4.85;;;;;;;26.94;21.67;102551.53;5004862;28;20490;-68
2021/05/31 06:51:38;;;;;;;7.82;5.13;;;;;;;26.49;22.17;102555.22;5003629;28;20036;-67
2021/05/31 06:54:04;;;;;;;10.63;5.93;;;;;;;25.74;23.96;102547.84;5009307;28;20588;-68
2021/05/31 06:56:30;;;;;;;6.10;5.38;;;;;;;25.77;23.64;102546.75;5003428;28;20042;-68
2021/05/31 06:58:55;;;;;;;7.10;5.32;;;;;;;26.28;23.96;102547.09;5004475;28;20050;-68
2021/05/31 07:01:21;;;;;;;6.53;4.95;;;;;;;27.09;22.24;102550.22;5003414;28;20044;-68
2021/05/31 07:03:46;;;;;;;11.02;6.25;;;;;;;26.64;22.36;102547.75;4997775;28;20065;-67
2021/05/31 07:06:12;;;;;;;7.75;5.13;;;;;;;26.72;21.60;102549.78;5003259;28;20341;-66
2021/05/31 07:08:38;;;;;;;7.10;5.63;;;;;;;25.93;22.21;102546.38;5004282;28;20346;-67
2021/05/31 07:11:18;;;;;;;8.80;4.90;;;;;;;25.92;22.94;102542.00;5003588;28;20030;-66
2021/05/31 07:13:45;;;;;;;6.18;5.15;;;;;;;26.46;22.26;102549.25;4998419;28;20037;-67
2021/05/31 07:16:14;;;;;;;8.35;4.68;;;;;;;26.16;21.06;102548.09;5004795;28;20042;-68
2021/05/31 07:18:40;;;;;;;8.85;5.30;;;;;;;27.26;20.75;102543.44;5018582;28;20085;-67
2021/05/31 07:21:06;;;;;;;5.03;4.53;;;;;;;27.94;19.52;102548.28;5002992;28;20387;-67
2021/05/31 07:23:31;;;;;;;5.93;4.15;;;;;;;27.68;19.24;102546.09;5003548;28;20026;-67
2021/05/31 07:25:57;;;;;;;5.07;4.10;;;;;;;27.51;19.66;102546.69;5005369;28;20503;-67
2021/05/31 07:28:24;;;;;;;7.05;3.30;;;;;;;27.87;19.11;102542.63;5004228;28;20061;-68
2021/05/31 07:30:49;;;;;;;6.82;4.47;;;;;;;27.51;20.12;102539.47;5004817;28;20112;-67
2021/05/31 07:33:14;;;;;;;6.88;5.05;;;;;;;26.85;20.40;102538.91;5003983;28;20490;-67
2021/05/31 07:35:41;;;;;;;7.53;4.10;;;;;;;26.98;20.03;102542.22;5004451;28;20129;-67
2021/05/31 07:38:07;;;;;;;7.88;4.80;;;;;;;26.58;20.09;102532.19;5003417;28;20034;-67
2021/05/31 07:40:32;;;;;;;6.13;3.85;;;;;;;27.37;19.36;102534.47;5004329;28;20144;-67
2021/05/31 07:42:58;;;;;;;5.45;3.72;;;;;;;27.71;19.73;102543.13;5002510;28;20061;-66
2021/05/31 07:45:24;;;;;;;5.07;3.75;;;;;;;28.30;18.74;102533.44;5001559;28;20395;-67
2021/05/31 07:47:50;;;;;;;6.20;4.25;;;;;;;28.90;18.83;102524.41;5001767;28;20030;-66
2021/05/31 07:50:16;;;;;;;3.85;3.47;;;;;;;29.84;17.73;102527.16;5004325;28;20574;-68
2021/05/31 07:52:42;;;;;;;7.82;3.72;;;;;;;30.42;16.91;102523.22;5001361;28;20069;-67
2021/05/31 07:55:13;;;;;;;7.55;3.78;;;;;;;29.99;17.51;102527.47;5003493;28;20099;-67
2021/05/31 07:57:40;;;;;;;3.25;2.85;;;;;;;29.13;17.49;102531.19;5003930;28;20450;-67
2021/05/31 08:00:08;;;;;;;5.47;3.30;;;;;;;28.27;17.95;102528.31;5021313;28;20042;-68
2021/05/31 08:02:42;;;;;;;7.57;3.42;;;;;;;28.41;18.96;102529.78;5004753;28;20513;-68
2021/05/31 08:05:07;;;;;;;5.00;3.67;;;;;;;28.55;18.72;102523.13;5021345;28;20026;-67
2021/05/31 08:07:33;;;;;;;3.97;3.50;;;;;;;29.22;18.16;102517.88;5006269;28;20099;-68
2021/05/31 08:09:59;;;;;;;3.08;1.92;;;;;;;30.15;16.37;102505.25;4999663;28;20160;-68
2021/05/31 08:12:24;;;;;;;2.55;1.92;;;;;;;30.19;15.41;102517.44;5006695;28;20414;-68
2021/05/31 08:14:50;;;;;;;4.47;3.03;;;;;;;29.22;16.57;102518.72;5004819;28;20034;-67
2021/05/31 08:17:16;;;;;;;3.40;2.80;;;;;;;29.18;16.73;102516.47;5004687;28;20030;-67
2021/05/31 08:19:41;;;;;;;5.68;2.67;;;;;;;30.06;15.62;102527.72;5004146;28;20042;-67
2021/05/31 08:22:08;;;;;;;3.95;2.25;;;;;;;30.27;16.16;102516.69;5007813;28;20034;-68
2021/05/31 08:24:35;;;;;;;4.28;2.58;;;;;;;29.93;15.61;102520.84;4995843;28;20076;-68
2021/05/31 08:27:00;;;;;;;2.30;2.10;;;;;;;28.89;15.48;102525.41;5005634;28;20048;-67
2021/05/31 08:29:26;;;;;;;4.32;2.10;;;;;;;29.34;16.09;102522.06;5005635;28;20037;-68
2021/05/31 08:31:53;;;;;;;2.35;1.40;;;;;;;29.10;15.89;102519.81;5006988;28;20030;-68
2021/05/31 08:34:19;;;;;;;2.22;1.58;;;;;;;30.29;15.83;102515.53;5004780;28;20034;-68
2021/05/31 08:36:45;;;;;;;3.63;2.20;;;;;;;30.41;15.73;102520.69;5005801;28;20033;-67
2021/05/31 08:39:11;;;;;;;3.08;1.88;;;;;;;30.40;14.06;102522.56;5006180;28;20044;-67
2021/05/31 08:41:37;;;;;;;2.67;1.17;;;;;;;29.58;15.43;102525.09;5004015;28;20045;-69
2021/05/31 08:44:04;;;;;;;4.32;2.13;;;;;;;29.11;15.92;102517.03;5005275;28;20030;-67
2021/05/31 08:46:29;;;;;;;2.80;1.75;;;;;;;28.78;15.98;102515.63;5005365;28;20057;-67
2021/05/31 08:48:57;;;;;;;3.78;1.80;;;;;;;29.75;15.05;102511.84;5008490;28;20618;-67
2021/05/31 08:51:23;;;;;;;3.03;1.33;;;;;;;29.35;14.88;102505.78;5006240;28;20049;-68
2021/05/31 08:53:49;;;;;;;2.25;1.55;;;;;;;29.69;15.67;102517.84;5006558;28;20471;-68
2021/05/31 08:56:15;;;;;;;3.90;1.77;;;;;;;29.09;14.74;102510.91;5003161;28;20077;-68
2021/05/31 08:58:41;;;;;;;3.45;1.42;;;;;;;29.39;14.61;102506.31;5004948;28;20474;-68
2021/05/31 09:01:06;;;;;;;3.28;1.25;;;;;;;29.37;15.03;102505.59;5004078;28;20045;-69
2021/05/31 09:03:32;;;;;;;2.20;0.90;;;;;;;30.20;13.75;102502.97;5002582;28;20042;-68
2021/05/31 09:06:03;;;;;;;2.65;1.23;;;;;;;29.91;15.23;102512.06;5019956;28;20049;-68
2021/05/31 09:08:30;;;;;;;1.73;0.90;;;;;;;29.41;12.46;102506.16;5003842;28;20068;-68
2021/05/31 09:11:06;;;;;;;1.90;1.20;;;;;;;28.55;13.04;102502.44;5006136;28;20096;-68
2021/05/31 09:13:34;;;;;;;6.35;1.42;;;;;;;28.68;13.75;102504.91;5000018;28;20037;-68
2021/05/31 09:16:15;;;;;;;6.30;1.45;;;;;;;28.50;14.34;102498.47;4979585;28;20475;-67
2021/05/31 09:18:47;;;;;;;2.45;1.38;;;;;;;29.39;14.25;102500.09;5010522;28;20037;-69
2021/05/31 09:21:17;;;;;;;1.42;0.70;;;;;;;28.92;13.86;102500.88;5018057;28;20053;-68
2021/05/31 09:23:44;;;;;;;3.95;1.95;;;;;;;28.36;15.17;102501.59;4999053;28;20042;-68
2021/05/31 09:26:10;;;;;;;2.20;1.20;;;;;;;28.68;14.76;102498.63;5005149;28;20148;-68
2021/05/31 09:28:36;;;;;;;5.07;1.40;;;;;;;27.51;15.25;102499.19;5008304;28;20546;-68
2021/05/31 09:31:16;;;;;;;5.20;2.13;;;;;;;26.68;17.97;102505.44;5006092;28;20040;-68
2021/05/31 09:33:44;;;;;;;4.72;1.50;;;;;;;26.32;17.82;102501.28;4997158;28;20038;-68
2021/05/31 09:36:10;;;;;;;2.90;1.63;;;;;;;26.01;17.18;102493.03;5019410;28;20033;-69
2021/05/31 09:38:47;;;;;;;2.63;1.10;;;;;;;25.37;17.64;102497.16;5004458;28;21023;-69
2021/05/31 09:41:30;;;;;;;4.10;1.83;;;;;;;24.74;18.33;102495.78;4997810;28;20063;-68
2021/05/31 09:43:59;;;;;;;2.58;1.60;;;;;;;24.43;18.25;102492.72;5004523;28;20513;-68
2021/05/31 09:46:42;;;;;;;3.92;1.40;;;;;;;25.01;18.98;102488.34;5004549;28;20033;-68
2021/05/31 09:49:17;;;;;;;1.98;0.70;;;;;;;25.77;18.03;102483.31;4987391;28;20037;-68
2021/05/31 09:52:01;;;;;;;3.03;0.93;;;;;;;24.81;16.45;102480.97;5002702;28;20452;-68
2021/05/31 09:54:47;;;;;;;2.38;0.55;;;;;;;24.51;16.90;102476.97;5003733;28;20052;-69
2021/05/31 09:57:25;;;;;;;2.13;0.47;;;;;;;24.95;17.26;102477.22;5002732;28;20036;-68
2021/05/31 10:00:07;;;;;;;4.43;0.50;;;;;;;24.51;15.17;102471.63;5001785;28;20025;-68
2021/05/31 10:10:18;;;;;;;2.75;0.50;;;;;;;24.58;15.09;102470.19;4999576;28;20045;-68
2021/05/31 10:12:44;;;;;;;1.23;0.63;;;;;;;24.19;16.20;102466.84;5003416;28;20038;-68
2021/05/31 10:15:12;;;;;;;1.75;0.85;;;;;;;24.08;16.69;102464.09;5003933;28;20068;-68
2021/05/31 10:17:38;;;;;;;2.72;0.60;;;;;;;23.86;16.65;102459.47;4998370;28;20037;-69
2021/05/31 10:20:06;;;;;;;1.40;1.13;;;;;;;24.31;15.92;102462.41;4992262;28;20184;-68
2021/05/31 10:22:33;;;;;;;1.40;0.40;;;;;;;24.26;15.04;102456.56;5004146;28;20500;-68
2021/05/31 10:25:05;;;;;;;2.17;0.30;;;;;;;24.42;14.79;102458.97;5003377;28;20029;-68
2021/05/31 10:27:32;;;;;;;2.35;0.75;;;;;;;24.73;16.78;102454.81;4995853;28;20025;-68
2021/05/31 10:30:00;;;;;;;1.42;0.77;;;;;;;24.48;17.70;102450.50;5006199;28;20117;-67
2021/05/31 10:32:26;;;;;;;3.97;1.33;;;;;;;24.53;19.14;102448.31;4986371;28;20037;-68
2021/05/31 10:34:53;;;;;;;1.98;0.98;;;;;;;24.48;18.63;102444.28;5002114;28;20434;-68
2021/05/31 10:37:18;;;;;;;2.65;1.30;;;;;;;24.59;19.82;102442.50;5004789;28;20038;-68
2021/05/31 10:39:44;;;;;;;10.98;2.05;;;;;;;25.22;19.78;102439.53;5007479;28;20045;-68
2021/05/31 10:42:10;;;;;;;2.28;1.08;;;;;;;25.18;17.82;102443.41;5003106;28;20091;-68
2021/05/31 10:44:36;;;;;;;2.10;0.82;;;;;;;24.46;19.02;102441.75;5003819;28;20026;-68
2021/05/31 10:47:14;;;;;;;3.33;1.15;;;;;;;24.87;19.13;102439.56;5004590;28;20048;-68
2021/05/31 10:49:40;;;;;;;1.83;0.90;;;;;;;24.90;18.73;102440.16;5002786;28;20053;-68
2021/05/31 10:52:05;;;;;;;3.00;1.48;;;;;;;24.99;19.98;102439.47;5003987;28;20045;-68
2021/05/31 10:54:36;;;;;;;5.57;1.10;;;;;;;25.32;19.97;102432.44;5004373;28;20026;-70
2021/05/31 10:57:09;;;;;;;2.27;1.30;;;;;;;25.32;19.44;102432.44;4997330;28;20045;-68
2021/05/31 10:59:49;;;;;;;1.98;1.17;;;;;;;25.45;18.47;102430.50;5003845;28;20901;-69
2021/05/31 11:02:28;;;;;;;1.05;0.80;;;;;;;25.21;20.14;102433.28;4995261;28;20399;-68
2021/05/31 11:05:09;;;;;;;3.78;1.40;;;;;;;24.69;21.23;102431.13;5003314;28;20091;-68
2021/05/31 11:07:35;;;;;;;2.37;2.00;;;;;;;24.31;21.39;102427.66;5005328;28;20506;-68
2021/05/31 11:10:00;;;;;;;5.22;2.00;;;;;;;24.72;23.14;102430.88;5004094;28;20053;-69
2021/05/31 11:12:31;;;;;;;2.42;1.90;;;;;;;24.57;20.69;102428.41;5007728;28;20038;-68
2021/05/31 11:15:33;;;;;;;3.10;1.93;;;;;;;24.39;21.20;102427.94;5003978;28;20097;-68
2021/05/31 11:17:58;;;;;;;6.35;1.92;;;;;;;23.66;21.58;102431.50;4992722;28;20315;-68
2021/05/31 11:20:27;;;;;;;2.05;1.48;;;;;;;23.46;22.27;102424.06;4997548;28;20034;-68
2021/05/31 11:23:02;;;;;;;2.42;2.03;;;;;;;23.68;23.06;102416.22;5002935;28;20044;-69
2021/05/31 11:25:29;;;;;;;3.55;1.63;;;;;;;24.11;22.76;102421.13;4985784;28;20044;-67
2021/05/31 11:28:00;;;;;;;5.93;1.80;;;;;;;24.15;22.73;102422.63;5002222;28;20025;-66
2021/05/31 11:30:32;;;;;;;2.85;1.73;;;;;;;23.58;21.85;102410.69;5002930;28;20065;-67
2021/05/31 11:32:59;;;;;;;3.80;1.58;;;;;;;23.75;21.96;102406.81;5005492;28;20792;-66
2021/05/31 11:35:26;;;;;;;2.65;1.42;;;;;;;24.40;22.20;102412.75;5022304;28;20029;-66
2021/05/31 11:37:53;;;;;;;2.30;1.60;;;;;;;25.01;22.60;102415.28;5006062;28;20088;-66
2021/05/31 11:40:22;;;;;;;5.80;2.13;;;;;;;23.73;21.85;102413.22;5006756;28;20454;-67
2021/05/31 11:42:53;;;;;;;4.07;1.80;;;;;;;23.89;21.72;102418.34;5005238;28;20041;-66
2021/05/31 11:45:21;;;;;;;7.65;2.22;;;;;;;24.52;22.18;102408.34;4996369;28;20120;-66
2021/05/31 11:48:12;;;;;;;6.57;2.00;;;;;;;24.63;22.20;102401.19;4999910;28;20067;-67
2021/05/31 11:50:41;;;;;;;2.28;1.27;;;;;;;23.91;21.69;102408.41;5006616;28;20380;-67